sensor_id;sensor_type;location;lat;lon;timestamp;P1;durP1;ratioP1;P2;durP2;ratioP2
16262;SDS011;8239;48.594;8.598;2023-09-19T00:00:17;3.30;;;1.10;;
16262;SDS011;8239;48.594;8.598;2023-09-19T00:02:46;2.33;;;1.40;;
16262;SDS011;8239;48.594;8.598;2023-09-19T00:05:18;1.88;;;1.55;;
16262;SDS011;8239;48.594;8.598;2023-09-19T00:07:49;1.40;;;1.30;;
16262;SDS011;8239;48.594;8.598;2023-09-19T00:10:17;2.45;;;1.30;;
16262;SDS011;8239;48.594;8.598;2023-09-19T00:12:44;1.65;;;1.20;;
16262;SDS011;8239;48.594;8.598;2023-09-19T00:15:13;1.85;;;1.40;;
16262;SDS011;8239;48.594;8.598;2023-09-19T00:17:43;1.90;;;1.30;;
16262;SDS011;8239;48.594;8.598;2023-09-19T00:20:10;1.63;;;1.03;;
16262;SDS011;8239;48.594;8.598;2023-09-19T00:22:39;1.10;;;1.10;;
16262;SDS011;8239;48.594;8.598;2023-09-19T00:25:07;1.30;;;1.20;;
16262;SDS011;8239;48.594;8.598;2023-09-19T00:27:36;1.27;;;1.00;;
16262;SDS011;8239;48.594;8.598;2023-09-19T00:30:07;1.17;;;1.00;;
16262;SDS011;8239;48.594;8.598;2023-09-19T00:32:42;1.67;;;1.07;;
16262;SDS011;8239;48.594;8.598;2023-09-19T00:35:09;1.27;;;0.90;;
16262;SDS011;8239;48.594;8.598;2023-09-19T00:37:36;1.53;;;1.07;;
16262;SDS011;8239;48.594;8.598;2023-09-19T00:40:05;1.93;;;1.00;;
16262;SDS011;8239;48.594;8.598;2023-09-19T00:42:37;1.00;;;0.90;;
16262;SDS011;8239;48.594;8.598;2023-09-19T00:45:06;0.80;;;0.80;;
16262;SDS011;8239;48.594;8.598;2023-09-19T00:47:36;1.53;;;1.00;;
16262;SDS011;8239;48.594;8.598;2023-09-19T00:50:05;5.67;;;1.20;;
16262;SDS011;8239;48.594;8.598;2023-09-19T00:52:35;1.60;;;0.93;;
16262;SDS011;8239;48.594;8.598;2023-09-19T00:55:05;1.30;;;1.20;;
16262;SDS011;8239;48.594;8.598;2023-09-19T00:57:32;1.90;;;1.10;;
16262;SDS011;8239;48.594;8.598;2023-09-19T01:00:00;1.33;;;0.95;;
16262;SDS011;8239;48.594;8.598;2023-09-19T01:02:32;1.20;;;1.10;;
16262;SDS011;8239;48.594;8.598;2023-09-19T01:04:59;1.47;;;0.90;;
16262;SDS011;8239;48.594;8.598;2023-09-19T01:07:31;2.07;;;1.17;;
16262;SDS011;8239;48.594;8.598;2023-09-19T01:09:59;0.80;;;0.80;;
16262;SDS011;8239;48.594;8.598;2023-09-19T01:12:29;1.60;;;1.07;;
16262;SDS011;8239;48.594;8.598;2023-09-19T01:15:06;1.20;;;1.10;;
16262;SDS011;8239;48.594;8.598;2023-09-19T01:17:42;0.97;;;0.97;;
16262;SDS011;8239;48.594;8.598;2023-09-19T01:20:17;1.80;;;1.10;;
16262;SDS011;8239;48.594;8.598;2023-09-19T01:23:03;1.20;;;1.05;;
16262;SDS011;8239;48.594;8.598;2023-09-19T01:26:00;1.03;;;1.00;;
16262;SDS011;8239;48.594;8.598;2023-09-19T01:28:43;1.87;;;0.90;;
16262;SDS011;8239;48.594;8.598;2023-09-19T01:31:24;1.10;;;1.10;;
16262;SDS011;8239;48.594;8.598;2023-09-19T01:33:59;1.37;;;1.10;;
16262;SDS011;8239;48.594;8.598;2023-09-19T01:36:30;2.17;;;1.00;;
16262;SDS011;8239;48.594;8.598;2023-09-19T01:38:59;1.30;;;1.10;;
16262;SDS011;8239;48.594;8.598;2023-09-19T01:41:41;1.50;;;1.20;;
16262;SDS011;8239;48.594;8.598;2023-09-19T01:44:20;1.53;;;1.40;;
16262;SDS011;8239;48.594;8.598;2023-09-19T01:46:53;1.57;;;1.30;;
16262;SDS011;8239;48.594;8.598;2023-09-19T01:49:27;2.93;;;1.40;;
16262;SDS011;8239;48.594;8.598;2023-09-19T01:52:02;1.37;;;1.20;;
16262;SDS011;8239;48.594;8.598;2023-09-19T01:54:40;2.03;;;1.43;;
16262;SDS011;8239;48.594;8.598;2023-09-19T01:57:14;1.40;;;1.30;;
16262;SDS011;8239;48.594;8.598;2023-09-19T01:59:48;1.63;;;1.17;;
16262;SDS011;8239;48.594;8.598;2023-09-19T02:02:24;1.30;;;1.20;;
16262;SDS011;8239;48.594;8.598;2023-09-19T02:04:54;2.43;;;1.50;;
16262;SDS011;8239;48.594;8.598;2023-09-19T02:07:21;1.43;;;1.30;;
16262;SDS011;8239;48.594;8.598;2023-09-19T02:09:48;2.20;;;1.50;;
16262;SDS011;8239;48.594;8.598;2023-09-19T02:12:16;1.47;;;1.37;;
16262;SDS011;8239;48.594;8.598;2023-09-19T02:14:42;2.57;;;1.60;;
16262;SDS011;8239;48.594;8.598;2023-09-19T02:17:09;4.50;;;1.63;;
16262;SDS011;8239;48.594;8.598;2023-09-19T02:19:39;1.40;;;1.30;;
16262;SDS011;8239;48.594;8.598;2023-09-19T02:22:06;1.40;;;1.30;;
16262;SDS011;8239;48.594;8.598;2023-09-19T02:24:35;2.47;;;1.40;;
16262;SDS011;8239;48.594;8.598;2023-09-19T02:27:03;2.93;;;1.57;;
16262;SDS011;8239;48.594;8.598;2023-09-19T02:29:30;2.13;;;1.40;;
16262;SDS011;8239;48.594;8.598;2023-09-19T02:31:59;1.70;;;1.30;;
16262;SDS011;8239;48.594;8.598;2023-09-19T02:34:27;1.57;;;1.30;;
16262;SDS011;8239;48.594;8.598;2023-09-19T02:36:56;1.60;;;1.20;;
16262;SDS011;8239;48.594;8.598;2023-09-19T02:39:23;1.40;;;1.23;;
16262;SDS011;8239;48.594;8.598;2023-09-19T02:41:50;1.77;;;1.65;;
16262;SDS011;8239;48.594;8.598;2023-09-19T02:44:17;2.53;;;1.40;;
16262;SDS011;8239;48.594;8.598;2023-09-19T02:46:45;1.25;;;1.13;;
16262;SDS011;8239;48.594;8.598;2023-09-19T02:49:13;1.83;;;1.20;;
16262;SDS011;8239;48.594;8.598;2023-09-19T02:51:40;2.17;;;1.40;;
16262;SDS011;8239;48.594;8.598;2023-09-19T02:54:09;1.65;;;1.33;;
16262;SDS011;8239;48.594;8.598;2023-09-19T02:56:36;2.10;;;1.50;;
16262;SDS011;8239;48.594;8.598;2023-09-19T02:59:04;1.70;;;1.38;;
16262;SDS011;8239;48.594;8.598;2023-09-19T03:01:31;2.47;;;1.40;;
16262;SDS011;8239;48.594;8.598;2023-09-19T03:03:58;2.25;;;1.65;;
16262;SDS011;8239;48.594;8.598;2023-09-19T03:06:26;4.25;;;1.70;;
16262;SDS011;8239;48.594;8.598;2023-09-19T03:08:54;2.95;;;1.35;;
16262;SDS011;8239;48.594;8.598;2023-09-19T03:11:23;1.58;;;1.48;;
16262;SDS011;8239;48.594;8.598;2023-09-19T03:13:51;2.42;;;1.50;;
16262;SDS011;8239;48.594;8.598;2023-09-19T03:16:18;2.67;;;1.35;;
16262;SDS011;8239;48.594;8.598;2023-09-19T03:18:47;2.55;;;1.50;;
16262;SDS011;8239;48.594;8.598;2023-09-19T03:21:14;1.33;;;1.23;;
16262;SDS011;8239;48.594;8.598;2023-09-19T03:23:42;1.55;;;1.35;;
16262;SDS011;8239;48.594;8.598;2023-09-19T03:26:10;1.60;;;1.30;;
16262;SDS011;8239;48.594;8.598;2023-09-19T03:28:41;2.17;;;1.33;;
16262;SDS011;8239;48.594;8.598;2023-09-19T03:31:08;2.15;;;1.70;;
16262;SDS011;8239;48.594;8.598;2023-09-19T03:33:35;1.65;;;1.55;;
16262;SDS011;8239;48.594;8.598;2023-09-19T03:36:02;1.70;;;1.60;;
16262;SDS011;8239;48.594;8.598;2023-09-19T03:38:31;2.55;;;1.55;;
16262;SDS011;8239;48.594;8.598;2023-09-19T03:40:59;1.60;;;1.50;;
16262;SDS011;8239;48.594;8.598;2023-09-19T03:43:26;2.95;;;2.15;;
16262;SDS011;8239;48.594;8.598;2023-09-19T03:45:55;2.63;;;1.90;;
16262;SDS011;8239;48.594;8.598;2023-09-19T03:48:22;3.47;;;2.20;;
16262;SDS011;8239;48.594;8.598;2023-09-19T03:50:49;1.92;;;1.80;;
16262;SDS011;8239;48.594;8.598;2023-09-19T03:53:17;3.80;;;2.03;;
16262;SDS011;8239;48.594;8.598;2023-09-19T03:55:44;2.42;;;1.75;;
16262;SDS011;8239;48.594;8.598;2023-09-19T03:58:12;4.30;;;2.03;;
16262;SDS011;8239;48.594;8.598;2023-09-19T04:00:39;3.43;;;2.00;;
16262;SDS011;8239;48.594;8.598;2023-09-19T04:03:08;2.30;;;1.73;;
16262;SDS011;8239;48.594;8.598;2023-09-19T04:05:43;3.55;;;2.00;;
16262;SDS011;8239;48.594;8.598;2023-09-19T04:08:11;3.05;;;1.83;;
16262;SDS011;8239;48.594;8.598;2023-09-19T04:10:39;3.53;;;1.80;;
16262;SDS011;8239;48.594;8.598;2023-09-19T04:13:08;1.77;;;1.67;;
16262;SDS011;8239;48.594;8.598;2023-09-19T04:15:35;1.98;;;1.60;;
16262;SDS011;8239;48.594;8.598;2023-09-19T04:18:02;2.70;;;1.80;;
16262;SDS011;8239;48.594;8.598;2023-09-19T04:20:31;2.17;;;1.55;;
16262;SDS011;8239;48.594;8.598;2023-09-19T04:22:58;2.65;;;1.60;;
16262;SDS011;8239;48.594;8.598;2023-09-19T04:25:25;2.17;;;1.48;;
16262;SDS011;8239;48.594;8.598;2023-09-19T04:27:52;1.98;;;1.27;;
16262;SDS011;8239;48.594;8.598;2023-09-19T04:30:19;1.40;;;1.30;;
16262;SDS011;8239;48.594;8.598;2023-09-19T04:32:47;2.05;;;1.40;;
16262;SDS011;8239;48.594;8.598;2023-09-19T04:35:15;1.90;;;1.50;;
16262;SDS011;8239;48.594;8.598;2023-09-19T04:37:44;2.72;;;1.75;;
16262;SDS011;8239;48.594;8.598;2023-09-19T04:40:13;1.67;;;1.50;;
16262;SDS011;8239;48.594;8.598;2023-09-19T04:42:42;2.85;;;1.70;;
16262;SDS011;8239;48.594;8.598;2023-09-19T04:45:10;1.90;;;1.67;;
16262;SDS011;8239;48.594;8.598;2023-09-19T04:47:37;3.38;;;1.70;;
16262;SDS011;8239;48.594;8.598;2023-09-19T04:50:06;1.80;;;1.52;;
16262;SDS011;8239;48.594;8.598;2023-09-19T04:52:39;2.40;;;1.80;;
16262;SDS011;8239;48.594;8.598;2023-09-19T04:55:11;2.22;;;1.52;;
16262;SDS011;8239;48.594;8.598;2023-09-19T04:57:41;1.83;;;1.50;;
16262;SDS011;8239;48.594;8.598;2023-09-19T05:00:10;2.75;;;1.77;;
16262;SDS011;8239;48.594;8.598;2023-09-19T05:02:39;1.70;;;1.48;;
16262;SDS011;8239;48.594;8.598;2023-09-19T05:05:07;2.97;;;1.73;;
16262;SDS011;8239;48.594;8.598;2023-09-19T05:07:34;2.17;;;1.92;;
16262;SDS011;8239;48.594;8.598;2023-09-19T05:10:02;2.03;;;1.75;;
16262;SDS011;8239;48.594;8.598;2023-09-19T05:12:34;1.73;;;1.63;;
16262;SDS011;8239;48.594;8.598;2023-09-19T05:15:01;3.75;;;1.60;;
16262;SDS011;8239;48.594;8.598;2023-09-19T05:17:29;1.33;;;1.23;;
16262;SDS011;8239;48.594;8.598;2023-09-19T05:19:56;1.58;;;1.48;;
16262;SDS011;8239;48.594;8.598;2023-09-19T05:22:23;1.52;;;1.42;;
16262;SDS011;8239;48.594;8.598;2023-09-19T05:24:50;1.48;;;1.38;;
16262;SDS011;8239;48.594;8.598;2023-09-19T05:27:18;1.50;;;1.40;;
16262;SDS011;8239;48.594;8.598;2023-09-19T05:29:47;2.00;;;1.40;;
16262;SDS011;8239;48.594;8.598;2023-09-19T05:32:16;1.73;;;1.45;;
16262;SDS011;8239;48.594;8.598;2023-09-19T05:34:44;1.40;;;1.30;;
16262;SDS011;8239;48.594;8.598;2023-09-19T05:37:22;1.63;;;1.30;;
16262;SDS011;8239;48.594;8.598;2023-09-19T05:39:52;1.30;;;1.20;;
16262;SDS011;8239;48.594;8.598;2023-09-19T05:42:19;1.90;;;1.33;;
16262;SDS011;8239;48.594;8.598;2023-09-19T05:44:47;1.42;;;1.33;;
16262;SDS011;8239;48.594;8.598;2023-09-19T05:47:14;1.02;;;1.02;;
16262;SDS011;8239;48.594;8.598;2023-09-19T05:49:41;1.40;;;1.10;;
16262;SDS011;8239;48.594;8.598;2023-09-19T05:52:09;1.08;;;0.98;;
16262;SDS011;8239;48.594;8.598;2023-09-19T05:54:35;1.27;;;1.17;;
16262;SDS011;8239;48.594;8.598;2023-09-19T05:57:03;1.88;;;1.27;;
16262;SDS011;8239;48.594;8.598;2023-09-19T05:59:30;1.27;;;1.17;;
16262;SDS011;8239;48.594;8.598;2023-09-19T06:02:01;1.10;;;1.10;;
16262;SDS011;8239;48.594;8.598;2023-09-19T06:04:30;1.40;;;1.10;;
16262;SDS011;8239;48.594;8.598;2023-09-19T06:06:57;1.40;;;1.25;;
16262;SDS011;8239;48.594;8.598;2023-09-19T06:09:25;1.25;;;1.15;;
16262;SDS011;8239;48.594;8.598;2023-09-19T06:11:53;1.67;;;1.05;;
16262;SDS011;8239;48.594;8.598;2023-09-19T06:14:20;1.63;;;1.10;;
16262;SDS011;8239;48.594;8.598;2023-09-19T06:16:49;1.40;;;1.30;;
16262;SDS011;8239;48.594;8.598;2023-09-19T06:19:20;1.33;;;1.23;;
16262;SDS011;8239;48.594;8.598;2023-09-19T06:21:51;1.20;;;1.10;;
16262;SDS011;8239;48.594;8.598;2023-09-19T06:24:19;1.85;;;1.00;;
16262;SDS011;8239;48.594;8.598;2023-09-19T06:26:46;1.30;;;1.10;;
16262;SDS011;8239;48.594;8.598;2023-09-19T06:29:14;1.33;;;0.95;;
16262;SDS011;8239;48.594;8.598;2023-09-19T06:31:41;1.88;;;1.00;;
16262;SDS011;8239;48.594;8.598;2023-09-19T06:34:09;1.00;;;1.00;;
16262;SDS011;8239;48.594;8.598;2023-09-19T06:36:38;1.10;;;1.10;;
16262;SDS011;8239;48.594;8.598;2023-09-19T06:39:06;1.73;;;1.10;;
16262;SDS011;8239;48.594;8.598;2023-09-19T06:41:36;1.73;;;1.00;;
16262;SDS011;8239;48.594;8.598;2023-09-19T06:44:04;1.17;;;1.00;;
16262;SDS011;8239;48.594;8.598;2023-09-19T06:46:32;1.15;;;1.00;;
16262;SDS011;8239;48.594;8.598;2023-09-19T06:49:00;1.05;;;1.00;;
16262;SDS011;8239;48.594;8.598;2023-09-19T06:51:28;1.40;;;1.13;;
16262;SDS011;8239;48.594;8.598;2023-09-19T06:53:57;1.50;;;1.10;;
16262;SDS011;8239;48.594;8.598;2023-09-19T06:56:24;1.23;;;1.13;;
16262;SDS011;8239;48.594;8.598;2023-09-19T06:58:51;1.33;;;1.00;;
16262;SDS011;8239;48.594;8.598;2023-09-19T07:01:18;1.33;;;1.10;;
16262;SDS011;8239;48.594;8.598;2023-09-19T07:03:45;1.25;;;0.95;;
16262;SDS011;8239;48.594;8.598;2023-09-19T07:06:12;1.15;;;1.08;;
16262;SDS011;8239;48.594;8.598;2023-09-19T07:08:39;1.88;;;1.10;;
16262;SDS011;8239;48.594;8.598;2023-09-19T07:11:07;1.67;;;1.08;;
16262;SDS011;8239;48.594;8.598;2023-09-19T07:13:34;1.63;;;1.10;;
16262;SDS011;8239;48.594;8.598;2023-09-19T07:16:01;1.10;;;1.00;;
16262;SDS011;8239;48.594;8.598;2023-09-19T07:18:29;1.30;;;1.10;;
16262;SDS011;8239;48.594;8.598;2023-09-19T07:20:57;1.00;;;1.00;;
16262;SDS011;8239;48.594;8.598;2023-09-19T07:23:30;1.30;;;1.10;;
16262;SDS011;8239;48.594;8.598;2023-09-19T07:26:00;1.10;;;1.00;;
16262;SDS011;8239;48.594;8.598;2023-09-19T07:28:30;1.00;;;1.00;;
16262;SDS011;8239;48.594;8.598;2023-09-19T07:30:58;0.77;;;0.77;;
16262;SDS011;8239;48.594;8.598;2023-09-19T07:33:28;0.82;;;0.82;;
16262;SDS011;8239;48.594;8.598;2023-09-19T07:35:55;1.17;;;1.08;;
16262;SDS011;8239;48.594;8.598;2023-09-19T07:38:22;0.93;;;0.88;;
16262;SDS011;8239;48.594;8.598;2023-09-19T07:40:50;1.08;;;0.98;;
16262;SDS011;8239;48.594;8.598;2023-09-19T07:43:17;1.45;;;1.00;;
16262;SDS011;8239;48.594;8.598;2023-09-19T07:45:45;1.27;;;1.10;;
16262;SDS011;8239;48.594;8.598;2023-09-19T07:48:12;1.60;;;0.98;;
16262;SDS011;8239;48.594;8.598;2023-09-19T07:50:40;0.98;;;0.95;;
16262;SDS011;8239;48.594;8.598;2023-09-19T07:53:08;3.38;;;1.10;;
16262;SDS011;8239;48.594;8.598;2023-09-19T07:55:38;1.17;;;1.02;;
16262;SDS011;8239;48.594;8.598;2023-09-19T07:58:06;0.98;;;0.90;;
16262;SDS011;8239;48.594;8.598;2023-09-19T08:00:33;1.98;;;1.20;;
16262;SDS011;8239;48.594;8.598;2023-09-19T08:03:02;1.20;;;1.10;;
16262;SDS011;8239;48.594;8.598;2023-09-19T08:05:30;1.70;;;1.00;;
16262;SDS011;8239;48.594;8.598;2023-09-19T08:07:58;1.30;;;1.00;;
16262;SDS011;8239;48.594;8.598;2023-09-19T08:10:26;1.55;;;0.90;;
16262;SDS011;8239;48.594;8.598;2023-09-19T08:13:00;2.05;;;1.20;;
16262;SDS011;8239;48.594;8.598;2023-09-19T08:15:27;1.83;;;1.10;;
16262;SDS011;8239;48.594;8.598;2023-09-19T08:17:54;1.65;;;1.10;;
16262;SDS011;8239;48.594;8.598;2023-09-19T08:20:23;1.73;;;1.00;;
16262;SDS011;8239;48.594;8.598;2023-09-19T08:22:50;1.33;;;1.02;;
16262;SDS011;8239;48.594;8.598;2023-09-19T08:25:19;1.15;;;1.05;;
16262;SDS011;8239;48.594;8.598;2023-09-19T08:27:48;1.45;;;1.00;;
16262;SDS011;8239;48.594;8.598;2023-09-19T08:30:16;1.20;;;1.00;;
16262;SDS011;8239;48.594;8.598;2023-09-19T08:32:45;2.00;;;0.90;;
16262;SDS011;8239;48.594;8.598;2023-09-19T08:35:13;1.05;;;1.00;;
16262;SDS011;8239;48.594;8.598;2023-09-19T08:37:41;1.08;;;1.00;;
16262;SDS011;8239;48.594;8.598;2023-09-19T08:40:10;1.42;;;1.00;;
16262;SDS011;8239;48.594;8.598;2023-09-19T08:42:47;2.00;;;1.02;;
16262;SDS011;8239;48.594;8.598;2023-09-19T08:45:16;1.30;;;1.00;;
16262;SDS011;8239;48.594;8.598;2023-09-19T08:47:45;1.42;;;1.20;;
16262;SDS011;8239;48.594;8.598;2023-09-19T08:50:17;1.00;;;1.00;;
16262;SDS011;8239;48.594;8.598;2023-09-19T08:52:51;1.85;;;1.27;;
16262;SDS011;8239;48.594;8.598;2023-09-19T08:55:22;1.20;;;1.10;;
16262;SDS011;8239;48.594;8.598;2023-09-19T08:57:54;1.20;;;1.20;;
16262;SDS011;8239;48.594;8.598;2023-09-19T09:00:27;0.90;;;0.90;;
16262;SDS011;8239;48.594;8.598;2023-09-19T09:02:55;1.13;;;1.08;;
16262;SDS011;8239;48.594;8.598;2023-09-19T09:05:22;1.58;;;1.00;;
16262;SDS011;8239;48.594;8.598;2023-09-19T09:07:52;1.42;;;1.20;;
16262;SDS011;8239;48.594;8.598;2023-09-19T09:10:21;2.05;;;1.20;;
16262;SDS011;8239;48.594;8.598;2023-09-19T09:12:48;1.20;;;1.05;;
16262;SDS011;8239;48.594;8.598;2023-09-19T09:15:18;1.58;;;1.10;;
16262;SDS011;8239;48.594;8.598;2023-09-19T09:17:47;1.95;;;1.05;;
16262;SDS011;8239;48.594;8.598;2023-09-19T09:20:15;2.30;;;1.35;;
16262;SDS011;8239;48.594;8.598;2023-09-19T09:22:50;4.22;;;1.38;;
16262;SDS011;8239;48.594;8.598;2023-09-19T09:25:20;1.45;;;1.33;;
16262;SDS011;8239;48.594;8.598;2023-09-19T09:27:58;1.58;;;1.10;;
16262;SDS011;8239;48.594;8.598;2023-09-19T09:30:33;1.40;;;1.15;;
16262;SDS011;8239;48.594;8.598;2023-09-19T09:33:08;2.85;;;1.40;;
16262;SDS011;8239;48.594;8.598;2023-09-19T09:35:37;2.15;;;1.20;;
16262;SDS011;8239;48.594;8.598;2023-09-19T09:38:13;1.33;;;1.13;;
16262;SDS011;8239;48.594;8.598;2023-09-19T09:40:49;1.13;;;1.10;;
16262;SDS011;8239;48.594;8.598;2023-09-19T09:43:26;1.50;;;1.30;;
16262;SDS011;8239;48.594;8.598;2023-09-19T09:48:59;2.88;;;1.35;;
16262;SDS011;8239;48.594;8.598;2023-09-19T09:51:44;1.13;;;1.02;;
16262;SDS011;8239;48.594;8.598;2023-09-19T09:54:23;1.25;;;1.15;;
16262;SDS011;8239;48.594;8.598;2023-09-19T09:56:54;1.60;;;1.20;;
16262;SDS011;8239;48.594;8.598;2023-09-19T09:59:44;1.73;;;1.23;;
16262;SDS011;8239;48.594;8.598;2023-09-19T10:02:16;1.58;;;1.48;;
16262;SDS011;8239;48.594;8.598;2023-09-19T10:04:49;2.22;;;1.02;;
16262;SDS011;8239;48.594;8.598;2023-09-19T10:07:35;2.50;;;1.45;;
16262;SDS011;8239;48.594;8.598;2023-09-19T10:10:06;1.38;;;1.20;;
16262;SDS011;8239;48.594;8.598;2023-09-19T10:12:46;2.13;;;1.38;;
16262;SDS011;8239;48.594;8.598;2023-09-19T10:15:15;1.48;;;1.35;;
16262;SDS011;8239;48.594;8.598;2023-09-19T10:17:47;1.08;;;1.00;;
16262;SDS011;8239;48.594;8.598;2023-09-19T10:20:24;1.25;;;1.02;;
16262;SDS011;8239;48.594;8.598;2023-09-19T10:23:03;1.95;;;1.20;;
16262;SDS011;8239;48.594;8.598;2023-09-19T10:25:36;2.67;;;1.10;;
16262;SDS011;8239;48.594;8.598;2023-09-19T10:28:07;1.70;;;1.10;;
16262;SDS011;8239;48.594;8.598;2023-09-19T10:30:37;1.30;;;1.20;;
16262;SDS011;8239;48.594;8.598;2023-09-19T10:33:07;1.45;;;1.10;;
16262;SDS011;8239;48.594;8.598;2023-09-19T10:35:35;1.63;;;1.10;;
16262;SDS011;8239;48.594;8.598;2023-09-19T10:38:06;1.40;;;1.10;;
16262;SDS011;8239;48.594;8.598;2023-09-19T10:40:34;3.05;;;1.20;;
16262;SDS011;8239;48.594;8.598;2023-09-19T10:43:07;1.67;;;1.20;;
16262;SDS011;8239;48.594;8.598;2023-09-19T10:45:38;1.15;;;0.95;;
16262;SDS011;8239;48.594;8.598;2023-09-19T10:48:13;1.52;;;1.10;;
16262;SDS011;8239;48.594;8.598;2023-09-19T10:50:44;1.20;;;1.10;;
16262;SDS011;8239;48.594;8.598;2023-09-19T10:53:16;1.98;;;1.40;;
16262;SDS011;8239;48.594;8.598;2023-09-19T10:55:47;1.88;;;1.08;;
16262;SDS011;8239;48.594;8.598;2023-09-19T10:58:29;1.00;;;1.00;;
16262;SDS011;8239;48.594;8.598;2023-09-19T11:01:00;1.38;;;1.00;;
16262;SDS011;8239;48.594;8.598;2023-09-19T11:03:37;1.63;;;1.35;;
16262;SDS011;8239;48.594;8.598;2023-09-19T11:06:09;1.85;;;1.10;;
16262;SDS011;8239;48.594;8.598;2023-09-19T11:08:59;2.13;;;1.20;;
16262;SDS011;8239;48.594;8.598;2023-09-19T11:11:47;1.20;;;1.10;;
16262;SDS011;8239;48.594;8.598;2023-09-19T11:14:30;3.78;;;1.20;;
16262;SDS011;8239;48.594;8.598;2023-09-19T11:23:23;2.35;;;1.15;;
16262;SDS011;8239;48.594;8.598;2023-09-19T11:25:52;2.30;;;1.30;;
16262;SDS011;8239;48.594;8.598;2023-09-19T11:28:33;2.22;;;1.20;;
16262;SDS011;8239;48.594;8.598;2023-09-19T11:34:47;1.23;;;1.00;;
16262;SDS011;8239;48.594;8.598;2023-09-19T11:40:44;1.38;;;1.20;;
16262;SDS011;8239;48.594;8.598;2023-09-19T11:43:29;3.40;;;1.30;;
16262;SDS011;8239;48.594;8.598;2023-09-19T11:46:05;1.10;;;1.00;;
16262;SDS011;8239;48.594;8.598;2023-09-19T11:48:32;1.20;;;1.10;;
16262;SDS011;8239;48.594;8.598;2023-09-19T11:51:11;1.30;;;1.17;;
16262;SDS011;8239;48.594;8.598;2023-09-19T11:53:45;1.30;;;1.20;;
16262;SDS011;8239;48.594;8.598;2023-09-19T11:56:15;1.05;;;1.00;;
16262;SDS011;8239;48.594;8.598;2023-09-19T11:58:43;2.10;;;1.10;;
16262;SDS011;8239;48.594;8.598;2023-09-19T12:01:12;2.22;;;1.10;;
16262;SDS011;8239;48.594;8.598;2023-09-19T12:03:46;1.35;;;1.10;;
16262;SDS011;8239;48.594;8.598;2023-09-19T12:06:19;1.20;;;1.10;;
16262;SDS011;8239;48.594;8.598;2023-09-19T12:08:50;1.73;;;1.63;;
16262;SDS011;8239;48.594;8.598;2023-09-19T12:11:19;1.40;;;1.25;;
16262;SDS011;8239;48.594;8.598;2023-09-19T12:13:51;1.70;;;1.20;;
16262;SDS011;8239;48.594;8.598;2023-09-19T12:16:24;1.30;;;1.20;;
16262;SDS011;8239;48.594;8.598;2023-09-19T12:18:51;1.90;;;1.17;;
16262;SDS011;8239;48.594;8.598;2023-09-19T12:21:24;1.55;;;1.23;;
16262;SDS011;8239;48.594;8.598;2023-09-19T12:23:57;1.33;;;1.23;;
16262;SDS011;8239;48.594;8.598;2023-09-19T12:26:37;1.45;;;1.10;;
16262;SDS011;8239;48.594;8.598;2023-09-19T12:29:10;1.38;;;1.20;;
16262;SDS011;8239;48.594;8.598;2023-09-19T12:31:49;1.80;;;1.10;;
16262;SDS011;8239;48.594;8.598;2023-09-19T12:34:31;1.08;;;1.00;;
16262;SDS011;8239;48.594;8.598;2023-09-19T12:37:07;1.50;;;1.10;;
16262;SDS011;8239;48.594;8.598;2023-09-19T12:39:41;2.70;;;1.25;;
16262;SDS011;8239;48.594;8.598;2023-09-19T12:42:13;2.17;;;1.10;;
16262;SDS011;8239;48.594;8.598;2023-09-19T12:44:44;1.30;;;1.20;;
16262;SDS011;8239;48.594;8.598;2023-09-19T12:47:17;3.13;;;1.20;;
16262;SDS011;8239;48.594;8.598;2023-09-19T12:50:07;1.30;;;1.20;;
16262;SDS011;8239;48.594;8.598;2023-09-19T12:52:44;1.60;;;1.10;;
16262;SDS011;8239;48.594;8.598;2023-09-19T12:55:20;1.30;;;1.10;;
16262;SDS011;8239;48.594;8.598;2023-09-19T12:57:58;2.35;;;1.20;;
16262;SDS011;8239;48.594;8.598;2023-09-19T13:00:33;1.20;;;1.10;;
16262;SDS011;8239;48.594;8.598;2023-09-19T13:03:14;1.45;;;1.08;;
16262;SDS011;8239;48.594;8.598;2023-09-19T13:05:53;1.65;;;1.25;;
16262;SDS011;8239;48.594;8.598;2023-09-19T13:08:23;1.10;;;1.00;;
16262;SDS011;8239;48.594;8.598;2023-09-19T13:11:05;1.23;;;1.10;;
16262;SDS011;8239;48.594;8.598;2023-09-19T13:13:35;1.17;;;1.08;;
16262;SDS011;8239;48.594;8.598;2023-09-19T13:16:06;1.77;;;1.20;;
16262;SDS011;8239;48.594;8.598;2023-09-19T13:18:43;1.55;;;0.90;;
16262;SDS011;8239;48.594;8.598;2023-09-19T13:21:11;1.85;;;1.00;;
16262;SDS011;8239;48.594;8.598;2023-09-19T13:23:52;1.10;;;1.00;;
16262;SDS011;8239;48.594;8.598;2023-09-19T13:26:24;1.20;;;1.10;;
16262;SDS011;8239;48.594;8.598;2023-09-19T13:28:53;0.93;;;0.90;;
16262;SDS011;8239;48.594;8.598;2023-09-19T13:31:25;1.50;;;1.00;;
16262;SDS011;8239;48.594;8.598;2023-09-19T13:33:54;1.20;;;1.10;;
16262;SDS011;8239;48.594;8.598;2023-09-19T13:36:24;1.10;;;1.00;;
16262;SDS011;8239;48.594;8.598;2023-09-19T13:38:59;1.33;;;1.00;;
16262;SDS011;8239;48.594;8.598;2023-09-19T13:41:30;1.30;;;1.00;;
16262;SDS011;8239;48.594;8.598;2023-09-19T13:43:57;0.93;;;0.93;;
16262;SDS011;8239;48.594;8.598;2023-09-19T13:46:24;0.90;;;0.90;;
16262;SDS011;8239;48.594;8.598;2023-09-19T13:48:56;1.15;;;0.80;;
16262;SDS011;8239;48.594;8.598;2023-09-19T13:51:25;1.40;;;1.00;;
16262;SDS011;8239;48.594;8.598;2023-09-19T13:53:52;1.13;;;1.02;;
16262;SDS011;8239;48.594;8.598;2023-09-19T13:56:21;1.00;;;1.00;;
16262;SDS011;8239;48.594;8.598;2023-09-19T13:58:48;1.17;;;1.00;;
16262;SDS011;8239;48.594;8.598;2023-09-19T14:01:15;1.00;;;1.00;;
16262;SDS011;8239;48.594;8.598;2023-09-19T14:03:42;1.02;;;1.02;;
16262;SDS011;8239;48.594;8.598;2023-09-19T14:06:11;1.20;;;1.10;;
16262;SDS011;8239;48.594;8.598;2023-09-19T14:08:38;2.58;;;1.02;;
16262;SDS011;8239;48.594;8.598;2023-09-19T14:11:06;0.88;;;0.80;;
16262;SDS011;8239;48.594;8.598;2023-09-19T14:13:34;1.48;;;0.90;;
16262;SDS011;8239;48.594;8.598;2023-09-19T14:16:02;0.90;;;0.90;;
16262;SDS011;8239;48.594;8.598;2023-09-19T14:18:31;0.70;;;0.70;;
16262;SDS011;8239;48.594;8.598;2023-09-19T14:21:01;1.00;;;1.00;;
16262;SDS011;8239;48.594;8.598;2023-09-19T14:23:34;1.00;;;0.80;;
16262;SDS011;8239;48.594;8.598;2023-09-19T14:26:01;1.25;;;1.15;;
16262;SDS011;8239;48.594;8.598;2023-09-19T14:28:30;0.98;;;0.90;;
16262;SDS011;8239;48.594;8.598;2023-09-19T14:31:03;1.30;;;0.80;;
16262;SDS011;8239;48.594;8.598;2023-09-19T14:33:31;0.98;;;0.98;;
16262;SDS011;8239;48.594;8.598;2023-09-19T14:35:58;2.13;;;0.80;;
16262;SDS011;8239;48.594;8.598;2023-09-19T14:38:28;1.05;;;1.00;;
16262;SDS011;8239;48.594;8.598;2023-09-19T14:40:58;1.00;;;1.00;;
16262;SDS011;8239;48.594;8.598;2023-09-19T14:43:26;1.52;;;0.90;;
16262;SDS011;8239;48.594;8.598;2023-09-19T14:45:55;1.15;;;1.05;;
16262;SDS011;8239;48.594;8.598;2023-09-19T14:48:23;1.27;;;1.17;;
16262;SDS011;8239;48.594;8.598;2023-09-19T14:51:01;1.08;;;1.02;;
16262;SDS011;8239;48.594;8.598;2023-09-19T14:53:28;1.30;;;0.93;;
16262;SDS011;8239;48.594;8.598;2023-09-19T14:55:55;1.17;;;0.90;;
16262;SDS011;8239;48.594;8.598;2023-09-19T14:58:23;0.90;;;0.90;;
16262;SDS011;8239;48.594;8.598;2023-09-19T15:00:51;1.23;;;1.00;;
16262;SDS011;8239;48.594;8.598;2023-09-19T15:03:18;1.45;;;0.90;;
16262;SDS011;8239;48.594;8.598;2023-09-19T15:05:47;1.00;;;1.00;;
16262;SDS011;8239;48.594;8.598;2023-09-19T15:08:14;0.85;;;0.85;;
16262;SDS011;8239;48.594;8.598;2023-09-19T15:10:41;2.42;;;1.15;;
16262;SDS011;8239;48.594;8.598;2023-09-19T15:13:16;1.20;;;0.95;;
16262;SDS011;8239;48.594;8.598;2023-09-19T15:15:43;2.63;;;1.10;;
16262;SDS011;8239;48.594;8.598;2023-09-19T15:18:12;1.77;;;0.90;;
16262;SDS011;8239;48.594;8.598;2023-09-19T15:20:42;1.17;;;0.80;;
16262;SDS011;8239;48.594;8.598;2023-09-19T15:23:11;1.00;;;0.90;;
16262;SDS011;8239;48.594;8.598;2023-09-19T15:25:38;0.90;;;0.90;;
16262;SDS011;8239;48.594;8.598;2023-09-19T15:28:06;0.80;;;0.80;;
16262;SDS011;8239;48.594;8.598;2023-09-19T15:30:36;2.00;;;1.27;;
16262;SDS011;8239;48.594;8.598;2023-09-19T15:33:06;1.00;;;0.90;;
16262;SDS011;8239;48.594;8.598;2023-09-19T15:35:33;0.98;;;0.80;;